Time;durP1;ratioP1;P1;durP2;ratioP2;P2;SDS_P1;SDS_P2;PMS_P1;PMS_P2;Temp;Humidity;BMP_temperature;BMP_pressure;BME280_temperature;BME280_humidity;BME280_pressure;Samples;Min_cycle;Max_cycle;Signal;HPM_P1;HPM_P2
2022/09/30 00:01:07;;;;;;;5.10;4.60;;;14.50;81.50;14.70;95488.00;;;;5071411;28;20239;-83
2022/09/30 00:03:35;;;;;;;4.90;4.50;;;14.50;81.50;14.60;95493.00;;;;5072749;28;20200;-83
2022/09/30 00:06:06;;;;;;;4.63;4.33;;;14.50;81.50;14.60;95500.00;;;;5075278;28;20200;-83
2022/09/30 00:08:33;;;;;;;5.30;4.90;;;14.50;81.50;14.60;95505.00;;;;5074771;28;20184;-83
2022/09/30 00:11:03;;;;;;;4.80;4.40;;;14.40;81.50;14.60;95500.00;;;;5072132;28;20314;-83
2022/09/30 00:13:31;;;;;;;5.30;4.90;;;14.40;81.50;14.60;95507.00;;;;5073470;28;20191;-83
2022/09/30 00:15:59;;;;;;;4.87;4.57;;;14.40;81.50;14.60;95511.00;;;;5074429;28;20607;-83
2022/09/30 00:18:29;;;;;;;5.40;5.00;;;14.40;81.60;14.70;95513.00;;;;5074554;28;20227;-83
2022/09/30 00:20:56;;;;;;;5.43;5.00;;;14.40;81.60;14.70;95511.00;;;;5075185;28;20247;-83
2022/09/30 00:23:24;;;;;;;5.43;5.10;;;14.40;81.60;14.70;95512.00;;;;5075129;28;20612;-83
2022/09/30 00:25:58;;;;;;;5.63;5.20;;;14.40;81.70;14.70;95510.00;;;;5075733;28;20191;-83
2022/09/30 00:28:25;;;;;;;5.07;4.73;;;14.40;81.60;14.70;95510.00;;;;5075021;28;20196;-83
2022/09/30 00:30:53;;;;;;;5.70;5.30;;;14.50;81.60;14.70;95509.00;;;;5074522;28;20684;-83
2022/09/30 00:33:21;;;;;;;5.23;4.73;;;14.40;81.60;14.70;95503.00;;;;5074745;28;20562;-83
2022/09/30 00:35:49;;;;;;;5.40;4.90;;;14.50;81.60;14.70;95505.00;;;;5075761;28;20238;-83
2022/09/30 00:38:16;;;;;;;5.47;5.07;;;14.50;81.60;14.70;95510.00;;;;5074296;28;20757;-83
2022/09/30 00:40:44;;;;;;;5.63;5.27;;;14.50;82.40;14.70;95504.00;;;;5073808;28;20231;-83
2022/09/30 00:43:15;;;;;;;6.17;5.70;;;14.50;81.80;14.70;95503.00;;;;5074804;28;20196;-83
2022/09/30 00:45:51;;;;;;;5.93;5.33;;;14.50;81.80;14.70;95514.00;;;;5074407;28;20215;-83
2022/09/30 00:48:22;;;;;;;5.80;5.40;;;14.50;81.80;14.70;95513.00;;;;5074225;28;20265;-83
2022/09/30 00:50:54;;;;;;;5.63;5.23;;;14.50;81.80;14.70;95509.00;;;;5074046;28;20246;-83
2022/09/30 00:53:29;;;;;;;5.63;5.23;;;14.50;81.70;14.70;95509.00;;;;5074786;28;20200;-83
2022/09/30 00:56:01;;;;;;;5.23;4.77;;;14.50;81.60;14.70;95506.00;;;;5074136;28;20259;-83
2022/09/30 00:58:36;;;;;;;5.70;5.20;;;14.50;81.50;14.70;95506.00;;;;5073977;28;20235;-83
2022/09/30 01:01:04;;;;;;;5.27;4.90;;;14.50;81.40;14.70;95501.00;;;;5074346;28;20629;-83
2022/09/30 01:03:36;;;;;;;5.77;5.37;;;14.40;81.20;14.60;95507.00;;;;5074587;28;20250;-83
2022/09/30 01:06:05;;;;;;;5.50;5.10;;;14.40;81.10;14.60;95507.00;;;;5074547;28;20679;-83
2022/09/30 01:08:38;;;;;;;4.97;4.57;;;14.40;81.20;14.60;95513.00;;;;5072959;28;20554;-83
2022/09/30 01:11:05;;;;;;;5.67;5.17;;;14.40;81.10;14.60;95518.00;;;;5074040;28;20711;-83
2022/09/30 01:13:36;;;;;;;5.17;4.77;;;14.40;81.10;14.60;95526.00;;;;5074172;28;20238;-83
2022/09/30 01:16:26;;;;;;;4.83;4.50;;;14.40;81.10;14.60;95528.00;;;;5073125;28;20196;-82
2022/09/30 01:19:24;;;;;;;5.20;4.83;;;14.40;81.10;14.50;95532.00;;;;5072378;28;20264;-83
2022/09/30 01:22:10;;;;;;;4.97;4.57;;;14.40;81.10;14.50;95544.00;;;;5073570;28;20247;-83
2022/09/30 01:25:23;;;;;;;5.27;4.83;;;14.40;81.00;14.50;95548.00;;;;5073908;28;20211;-83
2022/09/30 01:28:39;;;;;;;5.17;4.70;;;14.40;81.00;14.50;95543.00;;;;5055196;28;20206;-83
2022/09/30 01:31:29;;;;;;;4.70;4.40;;;14.40;80.70;14.50;95549.00;;;;5047540;28;20647;-83
2022/09/30 01:34:09;;;;;;;5.50;5.10;;;14.40;80.90;14.50;95545.00;;;;5073639;28;20264;-83
2022/09/30 01:36:58;;;;;;;5.37;4.97;;;14.30;81.00;14.50;95549.00;;;;5073906;28;20600;-83
2022/09/30 01:39:41;;;;;;;5.37;4.93;;;14.30;81.00;14.50;95542.00;;;;5073604;28;20220;-83
2022/09/30 01:42:22;;;;;;;5.57;5.17;;;14.30;81.10;14.50;95547.00;;;;5074132;28;20651;-83
2022/09/30 01:45:02;;;;;;;5.93;5.53;;;14.30;81.20;14.50;95551.00;;;;5073574;28;20620;-83
2022/09/30 01:47:36;;;;;;;5.50;5.10;;;14.30;81.20;14.50;95552.00;;;;5073279;28;20613;-83
2022/09/30 01:50:14;;;;;;;5.30;4.90;;;14.30;81.30;14.50;95551.00;;;;5072778;28;20222;-83
2022/09/30 01:52:51;;;;;;;5.90;5.40;;;14.30;81.40;14.50;95564.00;;;;5071549;28;20635;-83
2022/09/30 01:55:27;;;;;;;5.43;5.03;;;14.30;81.40;14.50;95568.00;;;;5071958;28;20267;-83
2022/09/30 01:58:02;;;;;;;6.57;6.07;;;14.30;81.50;14.50;95568.00;;;;5073118;28;20222;-83
2022/09/30 02:00:32;;;;;;;6.00;5.37;;;14.30;81.50;14.50;95581.00;;;;5072153;28;20230;-83
2022/09/30 02:03:08;;;;;;;5.73;5.23;;;14.30;81.60;14.60;95576.00;;;;5073278;28;20235;-83
2022/09/30 02:05:44;;;;;;;6.20;5.70;;;14.30;81.70;14.60;95573.00;;;;5073139;28;20274;-83
2022/09/30 02:08:18;;;;;;;5.60;5.20;;;14.30;81.80;14.60;95567.00;;;;5073304;28;20215;-83
2022/09/30 02:10:52;;;;;;;6.30;5.80;;;14.40;81.90;14.60;95565.00;;;;5073381;28;20212;-83
2022/09/30 02:13:29;;;;;;;6.10;5.67;;;14.40;81.90;14.60;95568.00;;;;5073152;28;20183;-83
2022/09/30 02:16:11;;;;;;;5.80;5.40;;;14.40;81.70;14.60;95556.00;;;;5073358;28;20211;-83
2022/09/30 02:18:44;;;;;;;5.93;5.40;;;14.40;81.70;14.60;95554.00;;;;5073174;28;20219;-83
2022/09/30 02:21:17;;;;;;;5.20;4.90;;;14.40;81.80;14.60;95558.00;;;;5073688;28;20289;-82
2022/09/30 02:23:49;;;;;;;5.93;5.40;;;14.40;81.70;14.60;95564.00;;;;5072864;28;20869;-83
2022/09/30 02:26:24;;;;;;;6.20;5.70;;;14.40;81.80;14.70;95554.00;;;;5072348;28;20184;-83
2022/09/30 02:29:03;;;;;;;5.83;5.33;;;14.40;81.80;14.70;95559.00;;;;5072804;28;20237;-83
2022/09/30 02:31:34;;;;;;;6.10;5.60;;;14.40;81.80;14.70;95550.00;;;;5072149;28;20223;-83
2022/09/30 02:34:10;;;;;;;6.20;5.60;;;14.50;82.30;14.70;95544.00;;;;5072241;28;20216;-83
2022/09/30 02:36:45;;;;;;;6.20;5.73;;;14.50;81.40;14.70;95553.00;;;;5072098;28;20184;-83
2022/09/30 02:39:22;;;;;;;6.17;5.67;;;14.50;81.50;14.70;95553.00;;;;5072770;28;20295;-83
2022/09/30 02:41:59;;;;;;;6.37;5.77;;;14.50;81.50;14.70;95559.00;;;;5072335;28;20646;-83
2022/09/30 02:44:27;;;;;;;5.97;5.57;;;14.50;81.60;14.70;95559.00;;;;5072284;28;20363;-83
2022/09/30 02:47:06;;;;;;;6.10;5.60;;;14.50;81.50;14.70;95570.00;;;;5072168;28;20220;-83
2022/09/30 02:49:43;;;;;;;6.40;5.90;;;14.50;81.50;14.70;95568.00;;;;5073527;28;20279;-83
2022/09/30 02:52:25;;;;;;;5.93;5.37;;;14.50;81.50;14.70;95563.00;;;;5072481;28;20712;-83
2022/09/30 02:55:10;;;;;;;6.37;5.87;;;14.50;82.20;14.70;95573.00;;;;5071979;28;20208;-83
2022/09/30 02:57:48;;;;;;;6.30;5.80;;;14.50;81.50;14.70;95561.00;;;;5072663;28;20682;-83
2022/09/30 03:00:15;;;;;;;6.00;5.50;;;14.50;81.50;14.70;95572.00;;;;5072545;28;20254;-83
2022/09/30 03:02:43;;;;;;;5.73;5.33;;;14.50;81.50;14.70;95565.00;;;;5071970;28;20341;-83
2022/09/30 03:05:12;;;;;;;6.60;6.00;;;14.50;81.60;14.70;95567.00;;;;5072308;28;20254;-83
2022/09/30 03:07:40;;;;;;;6.37;5.83;;;14.50;81.40;14.70;95565.00;;;;5072281;28;20243;-83
2022/09/30 03:10:14;;;;;;;5.90;5.50;;;14.50;81.40;14.70;95562.00;;;;5072436;28;20207;-83
2022/09/30 03:13:21;;;;;;;6.13;5.63;;;14.50;81.30;14.60;95563.00;;;;5071089;28;20311;-83
2022/09/30 03:16:09;;;;;;;5.83;5.33;;;14.50;81.30;14.60;95560.00;;;;5071538;28;20617;-83
2022/09/30 03:19:03;;;;;;;6.10;5.60;;;14.50;81.40;14.60;95565.00;;;;5070961;28;20261;-83
2022/09/30 03:21:55;;;;;;;6.20;5.70;;;14.50;81.40;14.60;95570.00;;;;5071022;28;20246;-83
2022/09/30 03:24:50;;;;;;;6.40;5.80;;;14.40;81.20;14.60;95561.00;;;;5070820;28;20297;-83
2022/09/30 03:27:29;;;;;;;6.73;6.13;;;14.40;80.90;14.60;95569.00;;;;5070740;28;20663;-83
2022/09/30 03:30:05;;;;;;;6.30;5.80;;;14.40;81.00;14.60;95578.00;;;;5070753;28;20241;-83
2022/09/30 03:32:55;;;;;;;5.83;5.33;;;14.40;80.90;14.60;95583.00;;;;5070898;28;20225;-83
2022/09/30 03:35:35;;;;;;;5.67;5.17;;;14.40;80.90;14.60;95586.00;;;;5070623;28;20184;-82
2022/09/30 03:38:15;;;;;;;6.27;5.83;;;14.40;80.90;14.50;95587.00;;;;5071402;28;20279;-83
2022/09/30 03:40:54;;;;;;;6.20;5.70;;;14.40;80.70;14.50;95599.00;;;;5074228;28;20214;-83
2022/09/30 03:43:30;;;;;;;6.53;5.87;;;14.30;80.60;14.50;95602.00;;;;5074520;28;20614;-83
2022/09/30 03:46:06;;;;;;;6.50;6.00;;;14.30;80.60;14.50;95607.00;;;;5074487;28;20618;-83
2022/09/30 03:48:36;;;;;;;6.17;5.57;;;14.30;80.70;14.50;95604.00;;;;5073839;28;20183;-83
2022/09/30 03:51:07;;;;;;;6.37;5.87;;;14.30;80.80;14.50;95608.00;;;;5074041;28;20219;-83
2022/09/30 03:53:41;;;;;;;5.90;5.40;;;14.30;81.10;14.50;95612.00;;;;5074030;28;20680;-83
2022/09/30 03:56:08;;;;;;;7.33;6.23;;;14.30;80.90;14.40;95620.00;;;;5071732;28;20231;-83
2022/09/30 03:58:42;;;;;;;6.90;6.27;;;14.20;80.90;14.40;95619.00;;;;5072191;28;20295;-83
2022/09/30 04:01:20;;;;;;;7.47;6.87;;;14.20;81.00;14.40;95617.00;;;;5074411;28;20239;-83
2022/09/30 04:03:48;;;;;;;7.03;6.43;;;14.20;81.00;14.40;95628.00;;;;5074569;28;20229;-83
2022/09/30 04:06:15;;;;;;;6.90;6.33;;;14.20;81.10;14.40;95627.00;;;;5075169;28;20603;-83
2022/09/30 04:08:44;;;;;;;6.87;6.30;;;14.20;81.30;14.40;95624.00;;;;5074408;28;20604;-83
2022/09/30 04:11:12;;;;;;;7.60;7.00;;;14.20;81.40;14.40;95631.00;;;;5035544;28;1110457;-82
2022/09/30 04:13:39;;;;;;;13.47;11.50;;;14.20;81.50;14.40;95629.00;;;;5073641;28;20797;-83
2022/09/30 04:16:07;;;;;;;14.60;13.03;;;14.20;81.40;14.50;95633.00;;;;5075206;28;20227;-83
2022/09/30 04:18:37;;;;;;;12.03;10.93;;;14.20;81.60;14.50;95637.00;;;;5075331;28;20196;-82
2022/09/30 04:21:07;;;;;;;10.63;9.63;;;14.20;81.60;14.50;95640.00;;;;5075285;28;20216;-82
2022/09/30 04:23:36;;;;;;;9.57;8.67;;;14.30;81.70;14.50;95645.00;;;;5073708;28;20200;-82
2022/09/30 04:26:06;;;;;;;8.73;7.93;;;14.30;81.70;14.50;95647.00;;;;5072419;28;20287;-82
2022/09/30 04:28:34;;;;;;;7.57;6.87;;;14.30;81.70;14.50;95640.00;;;;5074585;28;20176;-82
2022/09/30 04:31:03;;;;;;;7.10;6.40;;;14.30;81.70;14.50;95646.00;;;;5075097;28;20760;-82
2022/09/30 04:33:31;;;;;;;7.87;7.27;;;14.20;81.60;14.50;95647.00;;;;5073971;28;20196;-82
2022/09/30 04:36:00;;;;;;;7.90;7.10;;;14.30;81.70;14.50;95643.00;;;;5075346;28;20286;-82
2022/09/30 04:38:28;;;;;;;7.73;7.03;;;14.30;81.60;14.50;95645.00;;;;5076400;28;20220;-82
2022/09/30 04:40:56;;;;;;;7.23;6.63;;;14.30;81.60;14.50;95646.00;;;;5075186;28;20312;-82
2022/09/30 04:43:25;;;;;;;7.33;6.73;;;14.30;81.60;14.50;95656.00;;;;5076780;28;20630;-82
2022/09/30 04:45:53;;;;;;;7.83;7.13;;;14.30;81.50;14.50;95659.00;;;;5075153;28;20207;-82
2022/09/30 04:48:21;;;;;;;7.57;6.87;;;14.30;81.50;14.50;95660.00;;;;5075129;28;20304;-82
2022/09/30 04:50:49;;;;;;;7.97;7.30;;;14.30;81.40;14.50;95659.00;;;;5074303;28;20223;-82
2022/09/30 04:53:18;;;;;;;7.70;6.97;;;14.30;81.40;14.50;95658.00;;;;5074869;28;20288;-82
2022/09/30 04:55:46;;;;;;;7.23;6.63;;;14.30;82.00;14.50;95650.00;;;;5075585;28;20196;-82
2022/09/30 04:58:14;;;;;;;7.03;6.43;;;14.30;82.00;14.50;95657.00;;;;5075766;28;20610;-83
2022/09/30 05:00:42;;;;;;;7.87;7.17;;;14.30;81.40;14.50;95654.00;;;;5074922;28;20307;-82
2022/09/30 05:03:09;;;;;;;7.97;7.17;;;14.30;81.50;14.50;95658.00;;;;5073393;28;20228;-82
2022/09/30 05:05:37;;;;;;;7.83;7.17;;;14.30;81.30;14.50;95670.00;;;;5075149;28;20196;-85
2022/09/30 05:08:05;;;;;;;7.80;7.10;;;14.30;81.10;14.50;95671.00;;;;5060577;28;20228;-85
2022/09/30 05:12:58;;;;;;;9.17;8.37;;;14.30;81.00;14.50;95670.00;;;;5108367;22;20243;-88
2022/09/30 05:15:26;;;;;;;8.87;7.97;;;14.30;81.70;14.50;95676.00;;;;5087408;28;20286;-88
2022/09/30 05:17:54;;;;;;;12.10;10.95;;;14.30;81.70;14.50;95677.00;;;;5094252;28;20425;-88
2022/09/30 05:20:21;;;;;;;9.40;7.87;;;14.20;81.50;14.50;95679.00;;;;5095502;28;20250;-88
2022/09/30 05:22:54;;;;;;;8.80;7.90;;;14.20;81.30;14.50;95689.00;;;;5095925;28;20191;-88
2022/09/30 05:25:22;;;;;;;8.13;7.33;;;14.20;81.10;14.50;95685.00;;;;5095412;28;20187;-88
2022/09/30 05:27:49;;;;;;;8.53;7.63;;;14.20;81.00;14.50;95684.00;;;;5095117;28;20222;-90
2022/09/30 05:30:17;;;;;;;8.50;7.50;;;14.20;81.00;14.50;95681.00;;;;5095046;28;20199;-88
2022/09/30 05:32:44;;;;;;;8.17;7.37;;;14.20;80.90;14.50;95687.00;;;;5095030;28;20203;-89
2022/09/30 05:35:13;;;;;;;9.33;8.43;;;14.20;80.80;14.50;95688.00;;;;5094921;28;20230;-88
2022/09/30 05:37:40;;;;;;;9.23;8.00;;;14.20;80.80;14.50;95690.00;;;;5093748;28;20219;-88
2022/09/30 05:40:09;;;;;;;8.20;7.47;;;14.20;80.70;14.40;95693.00;;;;5093526;28;20215;-89
2022/09/30 05:42:36;;;;;;;8.20;7.40;;;14.20;80.60;14.40;95704.00;;;;5094561;28;20264;-88
2022/09/30 05:45:05;;;;;;;8.40;7.60;;;14.20;80.60;14.40;95711.00;;;;5094396;28;20195;-89
2022/09/30 05:47:32;;;;;;;8.03;7.23;;;14.20;80.60;14.40;95719.00;;;;5093023;28;20211;-88
2022/09/30 05:50:00;;;;;;;8.50;7.70;;;14.10;80.60;14.40;95722.00;;;;5092550;28;20198;-88
2022/09/30 05:52:29;;;;;;;8.93;8.13;;;14.10;80.60;14.40;95709.00;;;;5092780;28;20653;-88
2022/09/30 05:54:59;;;;;;;10.50;8.57;;;14.10;80.60;14.40;95714.00;;;;5094079;28;20213;-88
2022/09/30 05:57:27;;;;;;;9.03;8.13;;;14.10;80.70;14.40;95711.00;;;;5092421;28;20206;-88
2022/09/30 05:59:56;;;;;;;12.50;10.53;;;14.10;80.80;14.40;95725.00;;;;5092054;28;20223;-88
2022/09/30 06:02:24;;;;;;;10.60;9.30;;;14.10;80.90;14.40;95723.00;;;;5093544;28;20772;-88
2022/09/30 06:04:51;;;;;;;9.63;8.63;;;14.10;81.00;14.40;95727.00;;;;5093982;28;20290;-88
2022/09/30 06:07:18;;;;;;;9.73;8.73;;;14.10;81.10;14.40;95731.00;;;;5094531;28;20290;-88
2022/09/30 06:09:46;;;;;;;9.10;8.20;;;14.10;81.30;14.50;95735.00;;;;5094368;28;20628;-88
2022/09/30 06:12:14;;;;;;;10.43;8.27;;;14.20;81.40;14.50;95726.00;;;;5094275;28;20199;-88
2022/09/30 06:14:42;;;;;;;8.67;7.67;;;14.20;81.40;14.50;95724.00;;;;5094232;28;20199;-88
2022/09/30 06:17:09;;;;;;;9.43;8.40;;;14.20;81.30;14.50;95728.00;;;;5094215;28;20248;-88
2022/09/30 06:19:39;;;;;;;8.63;7.83;;;14.20;81.30;14.50;95734.00;;;;5094104;28;20257;-88
2022/09/30 06:22:06;;;;;;;8.33;7.43;;;14.20;81.20;14.50;95739.00;;;;5094458;28;20203;-89
2022/09/30 06:24:33;;;;;;;7.87;7.17;;;14.20;81.90;14.50;95738.00;;;;5093602;28;20198;-87
2022/09/30 06:27:02;;;;;;;9.50;7.63;;;14.20;81.10;14.50;95740.00;;;;5093596;28;20660;-89
2022/09/30 06:29:29;;;;;;;8.47;7.63;;;14.20;81.20;14.50;95742.00;;;;5093803;28;20250;-88
2022/09/30 06:31:56;;;;;;;7.83;6.90;;;14.20;81.20;14.50;95746.00;;;;5093460;28;20180;-88
2022/09/30 06:34:23;;;;;;;8.50;7.27;;;14.20;81.20;14.50;95752.00;;;;5093597;28;20692;-88
2022/09/30 06:36:50;;;;;;;7.43;6.73;;;14.30;81.40;14.60;95751.00;;;;5104818;28;20191;-88
2022/09/30 06:39:17;;;;;;;8.00;7.30;;;14.30;81.40;14.60;95760.00;;;;5113857;28;20586;-88
2022/09/30 06:41:45;;;;;;;7.13;6.43;;;14.30;81.50;14.60;95759.00;;;;5113670;28;20268;-88
2022/09/30 06:44:14;;;;;;;7.00;6.40;;;14.30;81.40;14.60;95765.00;;;;5113822;28;20195;-88
2022/09/30 06:46:41;;;;;;;7.90;7.20;;;14.40;81.60;14.70;95770.00;;;;5113602;28;20663;-88
2022/09/30 06:49:08;;;;;;;7.77;6.83;;;14.30;81.50;14.70;95775.00;;;;5079799;28;20224;-88
2022/09/30 06:51:36;;;;;;;8.47;7.63;;;14.40;81.70;14.70;95770.00;;;;5073167;28;20283;-88
2022/09/30 06:54:03;;;;;;;8.17;7.37;;;14.40;81.70;14.80;95774.00;;;;5073197;28;20200;-88
2022/09/30 06:56:30;;;;;;;8.10;7.33;;;14.40;81.80;14.80;95782.00;;;;5073518;28;20283;-88
2022/09/30 06:58:57;;;;;;;8.37;7.53;;;14.40;81.70;14.90;95784.00;;;;5086683;28;20224;-91
2022/09/30 07:01:27;;;;;;;8.97;8.13;;;14.50;82.40;14.90;95793.00;;;;5105648;28;20238;-90
2022/09/30 07:03:56;;;;;;;9.50;8.60;;;14.50;82.60;15.00;95789.00;;;;5111314;28;20203;-88
2022/09/30 07:06:25;;;;;;;9.40;8.53;;;14.60;82.00;15.10;95784.00;;;;5106565;28;20674;-88
2022/09/30 07:08:54;;;;;;;9.90;8.87;;;14.60;82.00;15.10;95792.00;;;;5097985;28;20215;-88
2022/09/30 07:11:21;;;;;;;9.10;8.20;;;14.70;82.80;15.20;95791.00;;;;5093728;28;20203;-88
2022/09/30 07:13:49;;;;;;;8.33;7.53;;;14.70;82.80;15.20;95784.00;;;;5093567;28;20195;-88
2022/09/30 07:16:18;;;;;;;8.57;7.77;;;14.70;82.10;15.30;95792.00;;;;5093748;28;20198;-88
2022/09/30 07:18:47;;;;;;;8.97;8.07;;;14.80;82.00;15.30;95790.00;;;;5093018;28;20258;-88
2022/09/30 07:21:16;;;;;;;8.13;7.33;;;14.90;82.00;15.40;95798.00;;;;5093616;28;20251;-88
2022/09/30 07:23:46;;;;;;;7.60;6.73;;;14.90;81.90;15.40;95801.00;;;;5093690;28;20274;-88
2022/09/30 07:26:15;;;;;;;7.60;7.00;;;14.90;81.90;15.50;95800.00;;;;5093830;28;20221;-87
2022/09/30 07:28:42;;;;;;;7.10;6.50;;;15.00;81.90;15.50;95807.00;;;;5093369;28;20306;-88
2022/09/30 07:31:14;;;;;;;7.90;6.60;;;15.00;81.90;15.50;95807.00;;;;5093719;28;20222;-88
2022/09/30 07:33:43;;;;;;;6.97;6.27;;;15.10;81.80;15.60;95803.00;;;;5093569;28;20187;-87
2022/09/30 07:36:14;;;;;;;6.83;6.13;;;15.10;81.80;15.60;95808.00;;;;5092767;28;20668;-88
2022/09/30 07:38:42;;;;;;;5.60;5.10;;;15.20;81.70;15.60;95812.00;;;;5092815;28;20306;-88
2022/09/30 07:41:13;;;;;;;6.10;5.60;;;15.20;81.50;15.70;95819.00;;;;5092269;28;20763;-88
2022/09/30 07:43:45;;;;;;;4.77;4.47;;;15.20;81.30;15.70;95821.00;;;;5092308;28;20180;-88
2022/09/30 07:46:16;;;;;;;5.47;4.70;;;15.30;81.40;15.70;95815.00;;;;5092407;28;20213;-88
2022/09/30 07:48:49;;;;;;;4.83;4.43;;;15.30;81.40;15.80;95815.00;;;;5092275;28;20208;-89
2022/09/30 07:51:21;;;;;;;5.40;4.90;;;15.30;81.30;15.80;95815.00;;;;5092411;28;20222;-88
2022/09/30 07:53:51;;;;;;;4.97;4.67;;;15.40;81.10;15.80;95831.00;;;;5092401;28;20217;-88
2022/09/30 07:56:20;;;;;;;5.30;4.90;;;15.40;81.10;15.90;95827.00;;;;5092271;28;20293;-88
2022/09/30 07:58:48;;;;;;;5.03;4.60;;;15.50;81.20;16.00;95826.00;;;;5092215;28;20231;-89
2022/09/30 08:01:16;;;;;;;5.00;4.57;;;15.50;81.10;16.00;95829.00;;;;5092089;28;20211;-87
2022/09/30 08:03:44;;;;;;;4.20;3.90;;;15.50;80.80;16.00;95833.00;;;;5092082;28;20195;-87
2022/09/30 08:06:15;;;;;;;3.97;3.57;;;15.60;80.70;16.10;95837.00;;;;5092054;28;20198;-88
2022/09/30 08:08:45;;;;;;;3.07;2.87;;;15.60;80.60;16.10;95834.00;;;;5092329;28;20306;-88
2022/09/30 08:11:14;;;;;;;3.13;2.93;;;15.60;80.50;16.20;95835.00;;;;5092569;28;20294;-88
2022/09/30 08:13:41;;;;;;;3.60;3.30;;;15.70;80.50;16.20;95834.00;;;;5091900;28;20199;-87
2022/09/30 08:16:09;;;;;;;3.87;3.57;;;15.70;80.30;16.20;95835.00;;;;5091577;28;20309;-88
2022/09/30 08:18:36;;;;;;;4.07;3.77;;;15.70;80.40;16.30;95826.00;;;;5092052;28;20215;-88
2022/09/30 08:21:05;;;;;;;3.93;3.63;;;15.80;80.30;16.30;95825.00;;;;5091995;28;20211;-88
2022/09/30 08:23:32;;;;;;;4.17;3.87;;;15.80;80.00;16.30;95831.00;;;;5092189;28;20192;-88
2022/09/30 08:26:05;;;;;;;3.77;3.53;;;15.80;79.90;16.30;95840.00;;;;5095877;28;20233;-87
2022/09/30 08:28:33;;;;;;;3.80;3.50;;;15.90;79.70;16.30;95843.00;;;;5095995;28;20255;-88
2022/09/30 08:31:05;;;;;;;4.00;3.73;;;15.90;79.90;16.30;95839.00;;;;5095419;28;20234;-89
2022/09/30 08:33:33;;;;;;;4.10;3.80;;;15.90;79.90;16.30;95848.00;;;;5095657;28;20238;-89
2022/09/30 08:36:05;;;;;;;4.20;3.90;;;15.90;80.00;16.40;95849.00;;;;5095628;28;20278;-88
2022/09/30 08:38:33;;;;;;;4.37;3.97;;;15.90;80.00;16.40;95849.00;;;;5095717;28;20624;-88
2022/09/30 08:41:36;;;;;;;3.97;3.67;;;15.90;80.10;16.30;95851.00;;;;5095656;28;20264;-88
2022/09/30 08:44:23;;;;;;;3.63;3.33;;;15.90;79.20;16.30;95857.00;;;;5061410;28;20191;-88
2022/09/30 08:47:06;;;;;;;4.13;3.83;;;15.90;79.30;16.30;95864.00;;;;5095291;28;20274;-88
2022/09/30 08:49:53;;;;;;;4.10;3.80;;;15.90;79.40;16.30;95871.00;;;;5095417;28;20475;-87
2022/09/30 08:52:26;;;;;;;3.40;3.20;;;15.90;80.10;16.30;95867.00;;;;5095264;28;20179;-88
2022/09/30 08:54:57;;;;;;;4.10;3.80;;;15.90;79.40;16.30;95865.00;;;;5095520;28;20262;-87
2022/09/30 08:57:36;;;;;;;3.77;3.47;;;15.90;79.30;16.40;95864.00;;;;5095253;28;20199;-88
2022/09/30 09:00:09;;;;;;;3.67;3.37;;;16.00;79.70;16.40;95877.00;;;;5095294;28;20199;-87
2022/09/30 09:02:45;;;;;;;3.27;3.07;;;16.00;79.90;16.50;95879.00;;;;5095259;28;20187;-87
2022/09/30 09:05:37;;;;;;;3.40;3.07;;;16.00;79.80;16.60;95882.00;;;;5095385;28;20267;-88
2022/09/30 09:08:13;;;;;;;3.10;2.90;;;16.10;79.70;16.60;95888.00;;;;5095029;28;20221;-88
2022/09/30 09:10:45;;;;;;;3.10;2.90;;;16.10;80.20;16.80;95893.00;;;;5094778;28;20186;-88
2022/09/30 09:13:40;;;;;;;3.40;3.10;;;16.10;80.30;16.80;95894.00;;;;5094979;28;20199;-88
2022/09/30 09:16:18;;;;;;;3.00;2.80;;;16.20;79.40;16.90;95898.00;;;;5094814;28;20211;-87
2022/09/30 09:18:59;;;;;;;5.17;3.10;;;16.30;79.10;17.00;95893.00;;;;5094984;28;20217;-88
2022/09/30 09:21:46;;;;;;;2.87;2.67;;;16.40;79.10;17.10;95899.00;;;;5094630;28;20196;-88
2022/09/30 09:24:20;;;;;;;2.63;2.47;;;16.40;79.00;17.10;95905.00;;;;5094936;28;20210;-87
2022/09/30 09:26:48;;;;;;;2.10;2.00;;;16.50;79.00;17.20;95910.00;;;;5094503;28;20599;-88
2022/09/30 09:29:39;;;;;;;2.10;1.73;;;16.50;78.70;17.20;95907.00;;;;5094783;28;20253;-88
2022/09/30 09:32:14;;;;;;;2.30;2.17;;;16.60;77.90;17.20;95907.00;;;;5094897;28;20189;-88
2022/09/30 09:34:41;;;;;;;2.27;2.17;;;16.60;78.20;17.20;95913.00;;;;5094754;28;20233;-87
2022/09/30 09:37:20;;;;;;;2.20;2.10;;;16.60;78.40;17.30;95924.00;;;;5093632;28;20405;-87
2022/09/30 09:40:03;;;;;;;2.33;2.23;;;16.70;78.50;17.30;95918.00;;;;5094809;28;20211;-88
2022/09/30 09:42:55;;;;;;;1.87;1.77;;;16.70;78.30;17.30;95918.00;;;;5094350;28;20211;-87
2022/09/30 09:45:34;;;;;;;1.93;1.83;;;16.70;77.40;17.30;95924.00;;;;5094648;28;20278;-88
2022/09/30 09:48:02;;;;;;;1.80;1.70;;;16.80;76.40;17.30;95919.00;;;;5094497;28;20215;-88
2022/09/30 09:50:46;;;;;;;2.20;2.10;;;16.80;77.00;17.30;95911.00;;;;5094949;28;20261;-87
2022/09/30 09:53:44;;;;;;;1.90;1.80;;;16.80;76.70;17.40;95908.00;;;;5109239;28;20233;-89
2022/09/30 09:56:20;;;;;;;1.70;1.60;;;16.90;76.60;17.40;95915.00;;;;5109098;28;20203;-88
2022/09/30 09:59:13;;;;;;;2.03;1.93;;;16.90;76.40;17.40;95920.00;;;;5110717;28;20213;-88
2022/09/30 10:01:45;;;;;;;2.20;2.00;;;17.00;76.80;17.50;95926.00;;;;5095574;28;20282;-88
2022/09/30 10:04:20;;;;;;;1.90;1.80;;;17.00;77.30;17.50;95922.00;;;;5095915;28;20267;-87
2022/09/30 10:06:54;;;;;;;1.67;1.57;;;17.00;77.50;17.60;95921.00;;;;5094408;28;20702;-88
2022/09/30 10:09:34;;;;;;;1.97;1.87;;;17.00;77.70;17.60;95928.00;;;;5094327;28;20318;-88
2022/09/30 10:12:35;;;;;;;1.87;1.77;;;17.10;76.70;17.70;95932.00;;;;5093784;28;20729;-88
2022/09/30 10:15:20;;;;;;;1.57;1.47;;;17.10;75.50;17.70;95942.00;;;;5031501;28;20216;-88
2022/09/30 10:17:55;;;;;;;1.27;1.17;;;17.20;76.90;17.80;95940.00;;;;5062421;22;20315;-86
2022/09/30 10:20:32;;;;;;;1.17;1.07;;;17.20;76.70;17.80;95929.00;;;;5044460;28;20247;-86
2022/09/30 10:23:19;;;;;;;1.60;1.50;;;17.20;76.60;17.90;95930.00;;;;5020206;28;20640;-86
2022/09/30 10:26:02;;;;;;;1.30;1.20;;;17.30;77.00;17.90;95922.00;;;;5013508;28;20301;-86
2022/09/30 10:28:33;;;;;;;1.53;1.43;;;17.30;76.60;18.00;95928.00;;;;5013216;28;20221;-85
2022/09/30 10:31:07;;;;;;;1.17;1.17;;;17.40;77.20;18.10;95916.00;;;;5018086;28;20316;-86
2022/09/30 10:33:44;;;;;;;1.40;1.30;;;17.40;78.10;18.30;95924.00;;;;5034839;28;20620;-85
2022/09/30 10:36:18;;;;;;;1.60;1.50;;;17.60;78.30;18.40;95920.00;;;;5031737;28;20603;-85
2022/09/30 10:39:00;;;;;;;1.10;1.10;;;17.70;78.20;18.50;95922.00;;;;5032829;28;20235;-86
2022/09/30 10:41:31;;;;;;;1.37;1.27;;;17.80;77.80;18.60;95933.00;;;;5032775;28;20248;-86
2022/09/30 10:44:02;;;;;;;0.87;0.87;;;17.90;77.40;18.70;95938.00;;;;5032813;28;20571;-85
2022/09/30 10:46:34;;;;;;;0.60;0.50;;;18.00;76.90;18.70;95930.00;;;;5032367;28;20247;-86
2022/09/30 10:49:10;;;;;;;0.80;0.47;;;18.10;75.80;18.70;95938.00;;;;5032265;28;20201;-86
2022/09/30 10:51:38;;;;;;;0.57;0.50;;;18.20;74.70;18.70;95940.00;;;;5032337;28;20710;-86
2022/09/30 10:54:07;;;;;;;0.90;0.63;;;18.30;74.80;18.70;95940.00;;;;5032745;28;20232;-86
2022/09/30 10:56:53;;;;;;;0.70;0.57;;;18.30;74.70;18.70;95947.00;;;;5032456;28;20224;-86
2022/09/30 10:59:34;;;;;;;0.70;0.70;;;18.30;73.90;18.70;95946.00;;;;5033146;28;20205;-86
2022/09/30 11:02:22;;;;;;;0.80;0.80;;;18.30;74.10;18.70;95942.00;;;;5019291;28;20317;-86
2022/09/30 11:05:00;;;;;;;0.70;0.70;;;18.30;73.90;18.80;95937.00;;;;5019792;28;20232;-86
2022/09/30 11:07:32;;;;;;;1.00;0.90;;;18.40;74.30;18.80;95937.00;;;;5032275;28;20225;-86
2022/09/30 11:10:08;;;;;;;0.97;0.70;;;18.40;73.70;18.80;95942.00;;;;5032404;28;20225;-86
2022/09/30 11:12:44;;;;;;;0.93;0.93;;;18.40;73.60;18.90;95950.00;;;;5032168;28;20247;-85
2022/09/30 11:15:23;;;;;;;0.73;0.73;;;18.40;73.90;18.90;95941.00;;;;5031423;28;20211;-86
2022/09/30 11:17:58;;;;;;;1.10;1.00;;;18.40;73.80;18.90;95943.00;;;;5034469;28;20208;-86
2022/09/30 11:20:34;;;;;;;1.07;1.07;;;18.50;73.00;18.90;95941.00;;;;5032641;28;20639;-86
2022/09/30 11:23:12;;;;;;;1.20;1.10;;;18.50;71.70;18.90;95937.00;;;;5012168;28;20307;-86
2022/09/30 11:25:46;;;;;;;1.00;0.90;;;18.50;72.20;19.00;95936.00;;;;5012374;28;20233;-86